sensor_id;sensor_type;location;lat;lon;timestamp;pressure;altitude;pressure_sealevel;temperature;humidity
58785;BME280;44557;51.862;19.378;2022-10-16T00:00:54;99291.58;;;13.91;78.34
58785;BME280;44557;51.862;19.378;2022-10-16T00:02:07;99296.59;;;13.88;78.34
58785;BME280;44557;51.862;19.378;2022-10-16T00:03:09;99297.09;;;13.94;78.04
58785;BME280;44557;51.862;19.378;2022-10-16T00:04:11;99301.89;;;13.88;78.21
58785;BME280;44557;51.862;19.378;2022-10-16T00:05:13;99297.41;;;13.94;78.16
58785;BME280;44557;51.862;19.378;2022-10-16T00:06:17;99301.35;;;13.89;78.19
58785;BME280;44557;51.862;19.378;2022-10-16T00:07:18;99302.69;;;13.88;78.45
58785;BME280;44557;51.862;19.378;2022-10-16T00:08:20;99303.52;;;13.85;78.29
58785;BME280;44557;51.862;19.378;2022-10-16T00:09:21;99305.15;;;13.75;78.74
58785;BME280;44557;51.862;19.378;2022-10-16T00:10:23;99306.69;;;13.77;78.69
58785;BME280;44557;51.862;19.378;2022-10-16T00:11:30;99309.23;;;13.82;78.63
58785;BME280;44557;51.862;19.378;2022-10-16T00:12:34;99308.17;;;13.81;78.56
58785;BME280;44557;51.862;19.378;2022-10-16T00:13:37;99308.45;;;13.84;78.43
58785;BME280;44557;51.862;19.378;2022-10-16T00:14:39;99306.05;;;13.78;78.55
58785;BME280;44557;51.862;19.378;2022-10-16T00:15:43;99309.27;;;13.75;78.83
58785;BME280;44557;51.862;19.378;2022-10-16T00:16:45;99305.41;;;13.63;79.31
58785;BME280;44557;51.862;19.378;2022-10-16T00:17:49;99304.66;;;13.65;79.13
58785;BME280;44557;51.862;19.378;2022-10-16T00:18:51;99305.08;;;13.54;79.61
58785;BME280;44557;51.862;19.378;2022-10-16T00:19:52;99303.48;;;13.62;79.40
58785;BME280;44557;51.862;19.378;2022-10-16T00:20:54;99304.21;;;13.67;79.08
58785;BME280;44557;51.862;19.378;2022-10-16T00:21:56;99302.64;;;13.68;79.07
58785;BME280;44557;51.862;19.378;2022-10-16T00:22:57;99301.81;;;13.61;79.15
58785;BME280;44557;51.862;19.378;2022-10-16T00:24:02;99298.25;;;13.48;79.58
58785;BME280;44557;51.862;19.378;2022-10-16T00:25:05;99301.39;;;13.51;79.69
58785;BME280;44557;51.862;19.378;2022-10-16T00:26:10;99295.48;;;13.52;79.68
58785;BME280;44557;51.862;19.378;2022-10-16T00:27:12;99295.66;;;13.49;79.62
58785;BME280;44557;51.862;19.378;2022-10-16T00:28:13;99293.02;;;13.47;79.82
58785;BME280;44557;51.862;19.378;2022-10-16T00:29:14;99295.83;;;13.45;79.70
58785;BME280;44557;51.862;19.378;2022-10-16T00:30:16;99298.61;;;13.42;79.78
58785;BME280;44557;51.862;19.378;2022-10-16T00:31:20;99293.74;;;13.48;79.78
58785;BME280;44557;51.862;19.378;2022-10-16T00:32:21;99296.70;;;13.46;79.69
58785;BME280;44557;51.862;19.378;2022-10-16T00:33:23;99299.78;;;13.38;80.14
58785;BME280;44557;51.862;19.378;2022-10-16T00:34:25;99294.04;;;13.43;79.90
58785;BME280;44557;51.862;19.378;2022-10-16T00:35:26;99293.65;;;13.43;79.98
58785;BME280;44557;51.862;19.378;2022-10-16T00:36:29;99293.75;;;13.40;80.22
58785;BME280;44557;51.862;19.378;2022-10-16T00:37:31;99295.23;;;13.43;79.89
58785;BME280;44557;51.862;19.378;2022-10-16T00:38:33;99291.42;;;13.39;80.05
58785;BME280;44557;51.862;19.378;2022-10-16T00:39:35;99295.16;;;13.43;80.06
58785;BME280;44557;51.862;19.378;2022-10-16T00:40:37;99299.15;;;13.33;80.16
58785;BME280;44557;51.862;19.378;2022-10-16T00:41:38;99303.73;;;13.30;80.34
58785;BME280;44557;51.862;19.378;2022-10-16T00:42:40;99306.64;;;13.28;80.52
58785;BME280;44557;51.862;19.378;2022-10-16T00:43:44;99305.77;;;13.28;80.45
58785;BME280;44557;51.862;19.378;2022-10-16T00:44:50;99305.52;;;13.31;80.55
58785;BME280;44557;51.862;19.378;2022-10-16T00:45:56;99303.29;;;13.26;80.58
58785;BME280;44557;51.862;19.378;2022-10-16T00:46:58;99304.91;;;13.29;80.52
58785;BME280;44557;51.862;19.378;2022-10-16T00:47:59;99304.58;;;13.33;80.48
58785;BME280;44557;51.862;19.378;2022-10-16T00:49:15;99303.02;;;13.36;80.34
58785;BME280;44557;51.862;19.378;2022-10-16T00:51:21;99303.05;;;13.30;80.36
58785;BME280;44557;51.862;19.378;2022-10-16T00:52:24;99303.27;;;13.29;80.44
58785;BME280;44557;51.862;19.378;2022-10-16T00:53:27;99305.46;;;13.33;80.45
58785;BME280;44557;51.862;19.378;2022-10-16T00:54:30;99302.54;;;13.37;80.28
58785;BME280;44557;51.862;19.378;2022-10-16T00:55:32;99304.41;;;13.35;80.32
58785;BME280;44557;51.862;19.378;2022-10-16T00:56:34;99307.80;;;13.31;80.40
58785;BME280;44557;51.862;19.378;2022-10-16T00:57:36;99306.04;;;13.25;80.67
58785;BME280;44557;51.862;19.378;2022-10-16T00:58:38;99308.65;;;13.22;80.84
58785;BME280;44557;51.862;19.378;2022-10-16T00:59:41;99308.95;;;13.22;80.76
58785;BME280;44557;51.862;19.378;2022-10-16T01:00:43;99307.65;;;13.27;80.61
58785;BME280;44557;51.862;19.378;2022-10-16T01:01:45;99305.04;;;13.23;80.63
58785;BME280;44557;51.862;19.378;2022-10-16T01:02:55;99307.03;;;13.16;81.13
58785;BME280;44557;51.862;19.378;2022-10-16T01:03:56;99312.91;;;13.22;80.72
58785;BME280;44557;51.862;19.378;2022-10-16T01:04:58;99310.75;;;13.24;80.72
58785;BME280;44557;51.862;19.378;2022-10-16T01:06:04;99313.36;;;13.14;81.17
58785;BME280;44557;51.862;19.378;2022-10-16T01:08:57;99312.73;;;13.02;81.52
58785;BME280;44557;51.862;19.378;2022-10-16T01:11:30;99316.48;;;13.07;81.37
58785;BME280;44557;51.862;19.378;2022-10-16T01:12:58;99324.33;;;13.12;81.21
58785;BME280;44557;51.862;19.378;2022-10-16T01:14:06;99323.90;;;13.11;81.12
58785;BME280;44557;51.862;19.378;2022-10-16T01:15:26;99321.75;;;13.07;81.27
58785;BME280;44557;51.862;19.378;2022-10-16T01:17:49;99318.75;;;13.00;81.66
58785;BME280;44557;51.862;19.378;2022-10-16T01:19:22;99321.69;;;13.07;81.34
58785;BME280;44557;51.862;19.378;2022-10-16T01:20:33;99320.77;;;13.05;81.52
58785;BME280;44557;51.862;19.378;2022-10-16T01:21:42;99321.41;;;13.02;81.50
58785;BME280;44557;51.862;19.378;2022-10-16T01:25:27;99317.66;;;13.10;81.29
58785;BME280;44557;51.862;19.378;2022-10-16T01:28:06;99312.27;;;12.96;82.00
58785;BME280;44557;51.862;19.378;2022-10-16T01:30:33;99317.05;;;12.91;82.34
58785;BME280;44557;51.862;19.378;2022-10-16T01:31:39;99317.53;;;12.95;82.11
58785;BME280;44557;51.862;19.378;2022-10-16T01:32:47;99316.51;;;12.91;82.24
58785;BME280;44557;51.862;19.378;2022-10-16T01:33:57;99317.86;;;12.88;82.35
58785;BME280;44557;51.862;19.378;2022-10-16T01:35:14;99316.86;;;12.93;82.22
58785;BME280;44557;51.862;19.378;2022-10-16T01:36:26;99314.63;;;12.91;82.19
58785;BME280;44557;51.862;19.378;2022-10-16T01:38:56;99313.96;;;12.94;82.24
58785;BME280;44557;51.862;19.378;2022-10-16T01:40:06;99318.48;;;12.94;82.27
58785;BME280;44557;51.862;19.378;2022-10-16T01:41:15;99318.15;;;13.01;81.91
58785;BME280;44557;51.862;19.378;2022-10-16T01:42:24;99320.21;;;12.98;82.10
58785;BME280;44557;51.862;19.378;2022-10-16T01:43:34;99319.84;;;12.95;82.09
58785;BME280;44557;51.862;19.378;2022-10-16T01:44:38;99321.07;;;12.94;82.35
58785;BME280;44557;51.862;19.378;2022-10-16T01:45:41;99320.65;;;12.93;82.36
58785;BME280;44557;51.862;19.378;2022-10-16T01:46:46;99320.98;;;12.85;82.49
58785;BME280;44557;51.862;19.378;2022-10-16T01:47:51;99320.60;;;12.76;83.00
58785;BME280;44557;51.862;19.378;2022-10-16T01:48:54;99319.16;;;12.78;83.04
58785;BME280;44557;51.862;19.378;2022-10-16T01:49:57;99325.52;;;12.73;83.35
58785;BME280;44557;51.862;19.378;2022-10-16T01:51:05;99323.87;;;12.73;83.38
58785;BME280;44557;51.862;19.378;2022-10-16T01:52:11;99325.85;;;12.74;83.32
58785;BME280;44557;51.862;19.378;2022-10-16T01:53:15;99322.27;;;12.79;83.27
58785;BME280;44557;51.862;19.378;2022-10-16T01:54:18;99327.13;;;12.84;82.98
58785;BME280;44557;51.862;19.378;2022-10-16T01:55:30;99331.41;;;12.79;83.34
58785;BME280;44557;51.862;19.378;2022-10-16T01:56:34;99331.32;;;12.81;83.07
58785;BME280;44557;51.862;19.378;2022-10-16T01:57:40;99335.48;;;12.76;82.98
58785;BME280;44557;51.862;19.378;2022-10-16T01:58:53;99339.30;;;12.78;83.10
58785;BME280;44557;51.862;19.378;2022-10-16T02:00:01;99340.49;;;12.69;83.45
58785;BME280;44557;51.862;19.378;2022-10-16T02:01:07;99340.98;;;12.72;83.53
58785;BME280;44557;51.862;19.378;2022-10-16T02:02:12;99342.04;;;12.84;82.99
58785;BME280;44557;51.862;19.378;2022-10-16T02:03:16;99343.27;;;12.82;82.91
58785;BME280;44557;51.862;19.378;2022-10-16T02:04:27;99342.20;;;12.81;83.01
58785;BME280;44557;51.862;19.378;2022-10-16T02:05:38;99343.84;;;12.72;83.31
58785;BME280;44557;51.862;19.378;2022-10-16T02:06:42;99339.08;;;12.79;83.06
58785;BME280;44557;51.862;19.378;2022-10-16T02:07:43;99342.31;;;12.83;83.04
58785;BME280;44557;51.862;19.378;2022-10-16T02:08:46;99345.88;;;12.79;83.19
58785;BME280;44557;51.862;19.378;2022-10-16T02:09:48;99346.69;;;12.73;83.51
58785;BME280;44557;51.862;19.378;2022-10-16T02:10:49;99347.52;;;12.79;83.08
58785;BME280;44557;51.862;19.378;2022-10-16T02:11:53;99348.84;;;12.85;82.75
58785;BME280;44557;51.862;19.378;2022-10-16T02:13:27;99353.15;;;12.87;82.64
58785;BME280;44557;51.862;19.378;2022-10-16T02:14:31;99345.97;;;12.73;83.38
58785;BME280;44557;51.862;19.378;2022-10-16T02:15:32;99349.23;;;12.77;83.26
58785;BME280;44557;51.862;19.378;2022-10-16T02:16:42;99348.49;;;12.73;83.36
58785;BME280;44557;51.862;19.378;2022-10-16T02:17:44;99346.02;;;12.68;83.84
58785;BME280;44557;51.862;19.378;2022-10-16T02:18:46;99349.92;;;12.66;83.65
58785;BME280;44557;51.862;19.378;2022-10-16T02:19:50;99347.75;;;12.64;84.07
58785;BME280;44557;51.862;19.378;2022-10-16T02:21:05;99346.52;;;12.62;84.04
58785;BME280;44557;51.862;19.378;2022-10-16T02:22:38;99347.38;;;12.61;84.01
58785;BME280;44557;51.862;19.378;2022-10-16T02:25:22;99347.05;;;12.61;84.21
58785;BME280;44557;51.862;19.378;2022-10-16T02:26:30;99350.48;;;12.62;84.18
58785;BME280;44557;51.862;19.378;2022-10-16T02:27:41;99357.11;;;12.63;84.10
58785;BME280;44557;51.862;19.378;2022-10-16T02:28:49;99359.83;;;12.68;84.16
58785;BME280;44557;51.862;19.378;2022-10-16T02:29:58;99362.20;;;12.71;83.82
58785;BME280;44557;51.862;19.378;2022-10-16T02:31:04;99363.98;;;12.66;83.83
58785;BME280;44557;51.862;19.378;2022-10-16T02:32:08;99367.75;;;12.69;83.77
58785;BME280;44557;51.862;19.378;2022-10-16T02:33:12;99362.34;;;12.81;83.34
58785;BME280;44557;51.862;19.378;2022-10-16T02:34:16;99360.88;;;12.79;83.45
58785;BME280;44557;51.862;19.378;2022-10-16T02:35:21;99361.70;;;12.73;83.87
58785;BME280;44557;51.862;19.378;2022-10-16T02:36:25;99355.58;;;12.68;83.91
58785;BME280;44557;51.862;19.378;2022-10-16T02:37:28;99360.96;;;12.62;84.53
58785;BME280;44557;51.862;19.378;2022-10-16T02:38:30;99362.04;;;12.61;84.23
58785;BME280;44557;51.862;19.378;2022-10-16T02:39:32;99361.97;;;12.64;84.16
58785;BME280;44557;51.862;19.378;2022-10-16T02:40:35;99362.24;;;12.66;84.12
58785;BME280;44557;51.862;19.378;2022-10-16T02:41:37;99359.63;;;12.66;84.18
58785;BME280;44557;51.862;19.378;2022-10-16T02:42:40;99358.98;;;12.65;84.20
58785;BME280;44557;51.862;19.378;2022-10-16T02:43:41;99360.67;;;12.70;84.11
58785;BME280;44557;51.862;19.378;2022-10-16T02:44:43;99362.88;;;12.63;84.61
58785;BME280;44557;51.862;19.378;2022-10-16T02:45:44;99367.27;;;12.58;84.70
58785;BME280;44557;51.862;19.378;2022-10-16T02:46:46;99364.59;;;12.65;84.48
58785;BME280;44557;51.862;19.378;2022-10-16T02:47:47;99366.45;;;12.70;84.20
58785;BME280;44557;51.862;19.378;2022-10-16T02:48:49;99365.02;;;12.74;83.98
58785;BME280;44557;51.862;19.378;2022-10-16T02:49:50;99363.70;;;12.71;83.98
58785;BME280;44557;51.862;19.378;2022-10-16T02:50:52;99364.06;;;12.70;84.16
58785;BME280;44557;51.862;19.378;2022-10-16T02:51:53;99364.02;;;12.61;84.52
58785;BME280;44557;51.862;19.378;2022-10-16T02:52:55;99366.39;;;12.58;85.13
58785;BME280;44557;51.862;19.378;2022-10-16T02:53:56;99364.05;;;12.66;84.69
58785;BME280;44557;51.862;19.378;2022-10-16T02:54:58;99361.42;;;12.67;84.44
58785;BME280;44557;51.862;19.378;2022-10-16T02:55:59;99362.61;;;12.69;84.60
58785;BME280;44557;51.862;19.378;2022-10-16T02:57:01;99368.01;;;12.66;84.61
58785;BME280;44557;51.862;19.378;2022-10-16T02:58:02;99366.92;;;12.67;84.61
58785;BME280;44557;51.862;19.378;2022-10-16T02:59:04;99370.86;;;12.70;84.28
58785;BME280;44557;51.862;19.378;2022-10-16T03:00:07;99365.99;;;12.64;84.56
58785;BME280;44557;51.862;19.378;2022-10-16T03:01:09;99365.19;;;12.67;84.66
58785;BME280;44557;51.862;19.378;2022-10-16T03:02:10;99361.23;;;12.77;84.31
58785;BME280;44557;51.862;19.378;2022-10-16T03:03:12;99361.83;;;12.79;84.03
58785;BME280;44557;51.862;19.378;2022-10-16T03:04:13;99365.29;;;12.68;84.58
58785;BME280;44557;51.862;19.378;2022-10-16T03:05:15;99367.83;;;12.68;84.68
58785;BME280;44557;51.862;19.378;2022-10-16T03:06:17;99372.94;;;12.68;84.79
58785;BME280;44557;51.862;19.378;2022-10-16T03:07:18;99370.63;;;12.74;84.40
58785;BME280;44557;51.862;19.378;2022-10-16T03:08:20;99371.10;;;12.64;84.86
58785;BME280;44557;51.862;19.378;2022-10-16T03:09:24;99372.78;;;12.68;84.86
58785;BME280;44557;51.862;19.378;2022-10-16T03:10:27;99374.45;;;12.68;84.66
58785;BME280;44557;51.862;19.378;2022-10-16T03:11:28;99375.64;;;12.68;84.79
58785;BME280;44557;51.862;19.378;2022-10-16T03:12:30;99379.02;;;12.71;84.63
58785;BME280;44557;51.862;19.378;2022-10-16T03:13:31;99377.54;;;12.62;85.04
58785;BME280;44557;51.862;19.378;2022-10-16T03:14:33;99375.98;;;12.70;84.85
58785;BME280;44557;51.862;19.378;2022-10-16T03:15:35;99377.96;;;12.77;84.56
58785;BME280;44557;51.862;19.378;2022-10-16T03:16:36;99380.17;;;12.73;84.59
58785;BME280;44557;51.862;19.378;2022-10-16T03:17:38;99376.82;;;12.69;85.00
58785;BME280;44557;51.862;19.378;2022-10-16T03:18:39;99377.97;;;12.73;84.73
58785;BME280;44557;51.862;19.378;2022-10-16T03:19:41;99379.10;;;12.74;84.96
58785;BME280;44557;51.862;19.378;2022-10-16T03:20:43;99379.45;;;12.66;85.41
58785;BME280;44557;51.862;19.378;2022-10-16T03:21:45;99380.48;;;12.66;85.33
58785;BME280;44557;51.862;19.378;2022-10-16T03:22:46;99376.87;;;12.74;84.97
58785;BME280;44557;51.862;19.378;2022-10-16T03:23:48;99375.55;;;12.65;85.40
58785;BME280;44557;51.862;19.378;2022-10-16T03:24:49;99375.58;;;12.69;85.26
58785;BME280;44557;51.862;19.378;2022-10-16T03:25:51;99374.86;;;12.73;85.25
58785;BME280;44557;51.862;19.378;2022-10-16T03:26:52;99381.45;;;12.67;85.33
58785;BME280;44557;51.862;19.378;2022-10-16T03:27:54;99378.71;;;12.68;85.43
58785;BME280;44557;51.862;19.378;2022-10-16T03:28:55;99383.45;;;12.64;85.72
58785;BME280;44557;51.862;19.378;2022-10-16T03:29:57;99383.54;;;12.65;85.57
58785;BME280;44557;51.862;19.378;2022-10-16T03:30:58;99385.73;;;12.68;85.55
58785;BME280;44557;51.862;19.378;2022-10-16T03:32:00;99386.19;;;12.70;85.30
58785;BME280;44557;51.862;19.378;2022-10-16T03:33:02;99382.54;;;12.73;85.51
58785;BME280;44557;51.862;19.378;2022-10-16T03:34:03;99384.39;;;12.71;85.30
58785;BME280;44557;51.862;19.378;2022-10-16T03:35:05;99385.79;;;12.66;85.62
58785;BME280;44557;51.862;19.378;2022-10-16T03:36:06;99381.42;;;12.69;85.83
58785;BME280;44557;51.862;19.378;2022-10-16T03:37:08;99382.79;;;12.77;85.14
58785;BME280;44557;51.862;19.378;2022-10-16T03:38:09;99383.11;;;12.77;85.36
58785;BME280;44557;51.862;19.378;2022-10-16T03:39:11;99383.57;;;12.76;85.18
58785;BME280;44557;51.862;19.378;2022-10-16T03:40:13;99385.76;;;12.76;85.43
58785;BME280;44557;51.862;19.378;2022-10-16T03:41:14;99382.66;;;12.72;85.61
58785;BME280;44557;51.862;19.378;2022-10-16T03:42:16;99383.70;;;12.69;85.64
58785;BME280;44557;51.862;19.378;2022-10-16T03:43:17;99382.73;;;12.75;85.54
58785;BME280;44557;51.862;19.378;2022-10-16T03:44:19;99388.82;;;12.75;85.36
58785;BME280;44557;51.862;19.378;2022-10-16T03:45:20;99385.38;;;12.80;85.22
58785;BME280;44557;51.862;19.378;2022-10-16T03:46:22;99386.90;;;12.70;85.74
58785;BME280;44557;51.862;19.378;2022-10-16T03:47:23;99388.32;;;12.71;85.62
58785;BME280;44557;51.862;19.378;2022-10-16T03:48:25;99388.18;;;12.74;85.74
58785;BME280;44557;51.862;19.378;2022-10-16T03:49:26;99385.44;;;12.79;85.33
58785;BME280;44557;51.862;19.378;2022-10-16T03:50:28;99388.33;;;12.74;85.62
58785;BME280;44557;51.862;19.378;2022-10-16T03:51:29;99385.02;;;12.74;85.60
58785;BME280;44557;51.862;19.378;2022-10-16T03:52:31;99384.11;;;12.73;85.78
58785;BME280;44557;51.862;19.378;2022-10-16T03:53:33;99381.66;;;12.72;85.83
58785;BME280;44557;51.862;19.378;2022-10-16T03:54:34;99380.61;;;12.75;85.62
58785;BME280;44557;51.862;19.378;2022-10-16T03:55:36;99382.42;;;12.78;85.57
58785;BME280;44557;51.862;19.378;2022-10-16T03:56:38;99376.42;;;12.82;85.47
58785;BME280;44557;51.862;19.378;2022-10-16T03:57:39;99375.81;;;12.83;85.33
58785;BME280;44557;51.862;19.378;2022-10-16T03:58:41;99375.41;;;12.82;85.27
58785;BME280;44557;51.862;19.378;2022-10-16T03:59:42;99374.81;;;12.81;85.29
58785;BME280;44557;51.862;19.378;2022-10-16T04:00:44;99375.36;;;12.73;85.54
58785;BME280;44557;51.862;19.378;2022-10-16T04:01:46;99376.79;;;12.77;85.79
58785;BME280;44557;51.862;19.378;2022-10-16T04:02:48;99378.39;;;12.82;85.45
58785;BME280;44557;51.862;19.378;2022-10-16T04:03:49;99379.02;;;12.81;85.43
58785;BME280;44557;51.862;19.378;2022-10-16T04:04:50;99379.25;;;12.78;85.49
58785;BME280;44557;51.862;19.378;2022-10-16T04:05:52;99380.08;;;12.76;85.77
58785;BME280;44557;51.862;19.378;2022-10-16T04:06:54;99385.11;;;12.78;85.78
58785;BME280;44557;51.862;19.378;2022-10-16T04:07:55;99387.06;;;12.77;85.62
58785;BME280;44557;51.862;19.378;2022-10-16T04:08:56;99387.49;;;12.82;85.70
58785;BME280;44557;51.862;19.378;2022-10-16T04:09:58;99386.41;;;12.80;85.64
58785;BME280;44557;51.862;19.378;2022-10-16T04:11:00;99388.95;;;12.83;85.58
58785;BME280;44557;51.862;19.378;2022-10-16T04:12:02;99383.34;;;12.77;85.82
58785;BME280;44557;51.862;19.378;2022-10-16T04:13:04;99385.04;;;12.82;85.61
58785;BME280;44557;51.862;19.378;2022-10-16T04:14:05;99385.49;;;12.84;85.72
58785;BME280;44557;51.862;19.378;2022-10-16T04:15:07;99390.65;;;12.78;85.95
58785;BME280;44557;51.862;19.378;2022-10-16T04:16:09;99389.80;;;12.77;86.01
58785;BME280;44557;51.862;19.378;2022-10-16T04:17:10;99392.20;;;12.80;85.78
58785;BME280;44557;51.862;19.378;2022-10-16T04:18:12;99392.73;;;12.83;85.74
58785;BME280;44557;51.862;19.378;2022-10-16T04:19:13;99388.91;;;12.86;85.76
58785;BME280;44557;51.862;19.378;2022-10-16T04:20:15;99395.00;;;12.83;85.63
58785;BME280;44557;51.862;19.378;2022-10-16T04:21:16;99396.14;;;12.87;85.52
58785;BME280;44557;51.862;19.378;2022-10-16T04:22:18;99397.91;;;12.86;85.58
58785;BME280;44557;51.862;19.378;2022-10-16T04:23:19;99397.91;;;12.82;85.77
58785;BME280;44557;51.862;19.378;2022-10-16T04:24:20;99404.17;;;12.86;85.90
58785;BME280;44557;51.862;19.378;2022-10-16T04:25:22;99404.11;;;12.91;85.62
58785;BME280;44557;51.862;19.378;2022-10-16T04:26:23;99403.98;;;12.92;85.37
58785;BME280;44557;51.862;19.378;2022-10-16T04:27:25;99405.06;;;12.95;85.39
58785;BME280;44557;51.862;19.378;2022-10-16T04:28:27;99403.49;;;12.92;85.21
58785;BME280;44557;51.862;19.378;2022-10-16T04:29:28;99403.27;;;12.85;85.63
58785;BME280;44557;51.862;19.378;2022-10-16T04:30:30;99402.49;;;12.89;85.45
58785;BME280;44557;51.862;19.378;2022-10-16T04:31:31;99403.42;;;12.88;85.36
58785;BME280;44557;51.862;19.378;2022-10-16T04:32:33;99404.94;;;12.89;85.80
58785;BME280;44557;51.862;19.378;2022-10-16T04:33:34;99406.02;;;12.91;85.62
58785;BME280;44557;51.862;19.378;2022-10-16T04:34:36;99405.40;;;12.91;85.75
58785;BME280;44557;51.862;19.378;2022-10-16T04:35:37;99405.47;;;12.96;85.58
58785;BME280;44557;51.862;19.378;2022-10-16T04:36:39;99405.14;;;12.91;85.54
58785;BME280;44557;51.862;19.378;2022-10-16T04:37:40;99404.85;;;12.88;85.62
58785;BME280;44557;51.862;19.378;2022-10-16T04:38:42;99407.31;;;12.96;85.61
58785;BME280;44557;51.862;19.378;2022-10-16T04:39:43;99411.92;;;12.98;85.16
58785;BME280;44557;51.862;19.378;2022-10-16T04:40:46;99415.81;;;12.91;85.58
58785;BME280;44557;51.862;19.378;2022-10-16T04:41:47;99415.18;;;12.91;85.80
58785;BME280;44557;51.862;19.378;2022-10-16T04:42:49;99413.98;;;12.94;85.80
58785;BME280;44557;51.862;19.378;2022-10-16T04:43:50;99416.16;;;12.93;85.73
58785;BME280;44557;51.862;19.378;2022-10-16T04:44:51;99414.88;;;12.88;85.82
58785;BME280;44557;51.862;19.378;2022-10-16T04:45:53;99413.95;;;12.89;86.08
58785;BME280;44557;51.862;19.378;2022-10-16T04:46:55;99417.45;;;12.90;85.85
58785;BME280;44557;51.862;19.378;2022-10-16T04:47:58;99419.10;;;12.94;85.72
58785;BME280;44557;51.862;19.378;2022-10-16T04:49:00;99416.69;;;12.91;85.70
58785;BME280;44557;51.862;19.378;2022-10-16T04:50:02;99418.87;;;12.87;85.96
58785;BME280;44557;51.862;19.378;2022-10-16T04:51:04;99417.41;;;12.91;85.93
58785;BME280;44557;51.862;19.378;2022-10-16T04:52:05;99420.39;;;12.98;85.75
58785;BME280;44557;51.862;19.378;2022-10-16T04:53:07;99415.80;;;12.98;85.66
58785;BME280;44557;51.862;19.378;2022-10-16T04:54:09;99419.02;;;12.97;85.68
58785;BME280;44557;51.862;19.378;2022-10-16T04:55:10;99418.27;;;12.95;85.90
58785;BME280;44557;51.862;19.378;2022-10-16T04:56:12;99410.24;;;13.00;85.51
58785;BME280;44557;51.862;19.378;2022-10-16T04:57:13;99414.46;;;12.98;85.69
58785;BME280;44557;51.862;19.378;2022-10-16T04:58:15;99414.09;;;13.00;85.57
58785;BME280;44557;51.862;19.378;2022-10-16T04:59:18;99409.91;;;12.99;85.75
58785;BME280;44557;51.862;19.378;2022-10-16T05:00:19;99411.55;;;12.95;85.77
58785;BME280;44557;51.862;19.378;2022-10-16T05:01:21;99413.34;;;12.97;85.65
58785;BME280;44557;51.862;19.378;2022-10-16T05:02:22;99417.56;;;12.99;85.80
58785;BME280;44557;51.862;19.378;2022-10-16T05:03:24;99420.27;;;12.97;85.78
58785;BME280;44557;51.862;19.378;2022-10-16T05:04:25;99416.10;;;12.97;85.87
58785;BME280;44557;51.862;19.378;2022-10-16T05:05:27;99408.49;;;13.03;85.48
58785;BME280;44557;51.862;19.378;2022-10-16T05:06:29;99407.08;;;13.00;85.62
58785;BME280;44557;51.862;19.378;2022-10-16T05:07:30;99403.75;;;13.03;85.53
58785;BME280;44557;51.862;19.378;2022-10-16T05:08:32;99406.59;;;13.02;85.63
58785;BME280;44557;51.862;19.378;2022-10-16T05:09:33;99412.04;;;12.96;85.94
58785;BME280;44557;51.862;19.378;2022-10-16T05:10:35;99407.73;;;12.97;85.88
58785;BME280;44557;51.862;19.378;2022-10-16T05:11:36;99408.28;;;13.01;85.91
58785;BME280;44557;51.862;19.378;2022-10-16T05:12:38;99408.42;;;13.01;85.80
58785;BME280;44557;51.862;19.378;2022-10-16T05:13:39;99410.70;;;13.03;85.92
58785;BME280;44557;51.862;19.378;2022-10-16T05:14:40;99407.71;;;13.00;85.76
58785;BME280;44557;51.862;19.378;2022-10-16T05:15:46;99409.73;;;13.05;85.67
58785;BME280;44557;51.862;19.378;2022-10-16T05:16:49;99409.44;;;13.05;85.70
58785;BME280;44557;51.862;19.378;2022-10-16T05:17:53;99408.17;;;13.06;85.76
58785;BME280;44557;51.862;19.378;2022-10-16T05:18:55;99408.40;;;13.08;85.53
58785;BME280;44557;51.862;19.378;2022-10-16T05:19:56;99407.83;;;13.04;85.56
58785;BME280;44557;51.862;19.378;2022-10-16T05:20:57;99413.82;;;13.11;85.50
58785;BME280;44557;51.862;19.378;2022-10-16T05:21:59;99414.75;;;13.13;85.36
58785;BME280;44557;51.862;19.378;2022-10-16T05:23:00;99415.30;;;13.20;85.06
58785;BME280;44557;51.862;19.378;2022-10-16T05:24:02;99415.58;;;13.15;85.25
58785;BME280;44557;51.862;19.378;2022-10-16T05:25:04;99418.63;;;13.16;85.10
58785;BME280;44557;51.862;19.378;2022-10-16T05:26:05;99419.85;;;13.11;85.24
58785;BME280;44557;51.862;19.378;2022-10-16T05:27:07;99423.27;;;13.12;85.45
58785;BME280;44557;51.862;19.378;2022-10-16T05:28:08;99421.10;;;13.14;85.32
58785;BME280;44557;51.862;19.378;2022-10-16T05:29:10;99422.05;;;13.11;85.58
58785;BME280;44557;51.862;19.378;2022-10-16T05:30:11;99425.01;;;13.12;85.63
58785;BME280;44557;51.862;19.378;2022-10-16T05:31:13;99425.88;;;13.12;85.34
58785;BME280;44557;51.862;19.378;2022-10-16T05:32:15;99421.60;;;13.12;85.47
58785;BME280;44557;51.862;19.378;2022-10-16T05:33:20;99423.02;;;13.15;85.31
58785;BME280;44557;51.862;19.378;2022-10-16T05:34:22;99418.05;;;13.15;85.43
58785;BME280;44557;51.862;19.378;2022-10-16T05:35:23;99418.86;;;13.16;85.34
58785;BME280;44557;51.862;19.378;2022-10-16T05:36:25;99420.77;;;13.13;85.23
58785;BME280;44557;51.862;19.378;2022-10-16T05:37:29;99423.56;;;13.12;85.69
58785;BME280;44557;51.862;19.378;2022-10-16T05:38:30;99422.12;;;13.14;85.35
58785;BME280;44557;51.862;19.378;2022-10-16T05:39:32;99420.99;;;13.16;85.51
58785;BME280;44557;51.862;19.378;2022-10-16T05:40:33;99421.08;;;13.20;85.53
58785;BME280;44557;51.862;19.378;2022-10-16T05:41:35;99423.35;;;13.19;85.40
58785;BME280;44557;51.862;19.378;2022-10-16T05:42:36;99430.64;;;13.17;85.53
58785;BME280;44557;51.862;19.378;2022-10-16T05:43:38;99429.59;;;13.19;85.38
58785;BME280;44557;51.862;19.378;2022-10-16T05:44:39;99434.73;;;13.16;85.53
58785;BME280;44557;51.862;19.378;2022-10-16T05:45:41;99434.09;;;13.12;85.58